KANB/ANB METAR and TAF weather

Enter ICAO airport designator
Station Type Date Time Source
KANB METAR 2019/10/18 10:53 UTC NOAA

KANB 181053Z AUTO 07004KT 10SM CLR 06/04 A2998 RMK AO2 SLP155 T00610044


Station Type Date Time Source
KANB Decoded METAR 2019/10/18 10:53 UTC NOAA

ANNISTON METRO AIRPORT, AL, United States (KANB) 33-35N 085-51W 183M
Oct 18, 2019 - 06:53 AM EDT / 2019.10.18 1053 UTC
Wind: from the ENE (070 degrees) at 5 MPH (4 KT):0
Visibility: 10 mile(s):0
Sky conditions: clear
Temperature: 43.0 F (6.1 C)
Dew Point: 39.9 F (4.4 C)
Relative Humidity: 88%
Pressure (altimeter): 29.98 in. Hg (1015 hPa)
ob: KANB 181053Z AUTO 07004KT 10SM CLR 06/04 A2998 RMK AO2 SLP155 T00610044
cycle: 11

Station Type Date Time Source
KANB TAF 2019/10/18 06:22 UTC NOAA

TAF KANB 180520Z 1806/1906 00000KT P6SM SKC
FM181600 08008KT P6SM SCT250
FM190100 08003KT P6SM BKN150

Example: see airport list